sensor_id;sensor_type;location;lat;lon;timestamp;P1;durP1;ratioP1;P2;durP2;ratioP2
48795;SDS011;34607;48.520;-1.330;2023-10-31T07:42:43;9.40;;;3.03;;
48795;SDS011;34607;48.520;-1.330;2023-10-31T07:45:10;16.65;;;3.63;;
48795;SDS011;34607;48.520;-1.330;2023-10-31T07:47:37;11.60;;;2.90;;
48795;SDS011;34607;48.520;-1.330;2023-10-31T07:50:05;9.98;;;2.63;;
48795;SDS011;34607;48.520;-1.330;2023-10-31T07:52:32;9.75;;;2.72;;
48795;SDS011;34607;48.520;-1.330;2023-10-31T07:54:59;10.27;;;2.90;;
48795;SDS011;34607;48.520;-1.330;2023-10-31T07:57:26;11.75;;;3.08;;
48795;SDS011;34607;48.520;-1.330;2023-10-31T07:59:55;6.82;;;2.67;;
48795;SDS011;34607;48.520;-1.330;2023-10-31T08:02:22;10.07;;;2.50;;
48795;SDS011;34607;48.520;-1.330;2023-10-31T08:04:49;9.38;;;3.20;;
48795;SDS011;34607;48.520;-1.330;2023-10-31T08:07:16;19.58;;;3.53;;
48795;SDS011;34607;48.520;-1.330;2023-10-31T08:09:43;11.05;;;2.83;;
48795;SDS011;34607;48.520;-1.330;2023-10-31T08:12:10;11.93;;;2.58;;
48795;SDS011;34607;48.520;-1.330;2023-10-31T08:14:37;13.55;;;3.20;;
48795;SDS011;34607;48.520;-1.330;2023-10-31T08:17:05;15.18;;;3.47;;
48795;SDS011;34607;48.520;-1.330;2023-10-31T08:19:33;15.40;;;3.13;;
48795;SDS011;34607;48.520;-1.330;2023-10-31T08:22:00;9.70;;;2.80;;
48795;SDS011;34607;48.520;-1.330;2023-10-31T08:24:27;11.38;;;2.80;;
48795;SDS011;34607;48.520;-1.330;2023-10-31T08:26:54;15.35;;;3.22;;
48795;SDS011;34607;48.520;-1.330;2023-10-31T08:29:21;15.35;;;3.65;;
48795;SDS011;34607;48.520;-1.330;2023-10-31T08:31:48;8.85;;;2.75;;
48795;SDS011;34607;48.520;-1.330;2023-10-31T08:34:17;14.27;;;2.38;;
48795;SDS011;34607;48.520;-1.330;2023-10-31T08:36:44;17.00;;;3.10;;
48795;SDS011;34607;48.520;-1.330;2023-10-31T08:39:11;10.95;;;3.10;;
48795;SDS011;34607;48.520;-1.330;2023-10-31T08:41:48;13.52;;;3.03;;
48795;SDS011;34607;48.520;-1.330;2023-10-31T08:44:16;15.77;;;3.38;;
48795;SDS011;34607;48.520;-1.330;2023-10-31T08:46:43;12.93;;;2.67;;
48795;SDS011;34607;48.520;-1.330;2023-10-31T08:49:10;14.20;;;3.47;;
48795;SDS011;34607;48.520;-1.330;2023-10-31T08:51:39;10.88;;;2.47;;
48795;SDS011;34607;48.520;-1.330;2023-10-31T08:54:06;23.80;;;3.80;;
48795;SDS011;34607;48.520;-1.330;2023-10-31T08:56:34;13.85;;;3.72;;
48795;SDS011;34607;48.520;-1.330;2023-10-31T08:59:01;21.70;;;4.15;;
48795;SDS011;34607;48.520;-1.330;2023-10-31T09:01:29;15.90;;;5.15;;
48795;SDS011;34607;48.520;-1.330;2023-10-31T09:03:56;19.20;;;6.72;;
48795;SDS011;34607;48.520;-1.330;2023-10-31T09:06:23;24.63;;;12.13;;
48795;SDS011;34607;48.520;-1.330;2023-10-31T09:08:52;21.27;;;9.00;;
48795;SDS011;34607;48.520;-1.330;2023-10-31T09:11:19;19.73;;;10.38;;
48795;SDS011;34607;48.520;-1.330;2023-10-31T09:13:46;19.42;;;9.40;;
48795;SDS011;34607;48.520;-1.330;2023-10-31T09:16:13;19.23;;;11.38;;
48795;SDS011;34607;48.520;-1.330;2023-10-31T09:18:40;20.90;;;11.13;;
48795;SDS011;34607;48.520;-1.330;2023-10-31T09:21:08;22.45;;;10.00;;
48795;SDS011;34607;48.520;-1.330;2023-10-31T09:23:35;29.55;;;14.73;;
48795;SDS011;34607;48.520;-1.330;2023-10-31T09:26:04;20.83;;;9.43;;
48795;SDS011;34607;48.520;-1.330;2023-10-31T09:28:31;19.73;;;10.52;;
48795;SDS011;34607;48.520;-1.330;2023-10-31T09:30:58;19.75;;;8.45;;
48795;SDS011;34607;48.520;-1.330;2023-10-31T09:33:27;27.45;;;12.95;;
48795;SDS011;34607;48.520;-1.330;2023-10-31T09:35:54;30.13;;;13.00;;
48795;SDS011;34607;48.520;-1.330;2023-10-31T09:38:21;26.67;;;12.75;;
48795;SDS011;34607;48.520;-1.330;2023-10-31T09:40:48;31.25;;;16.67;;
48795;SDS011;34607;48.520;-1.330;2023-10-31T09:43:17;37.63;;;17.40;;
48795;SDS011;34607;48.520;-1.330;2023-10-31T09:45:44;27.65;;;16.00;;
48795;SDS011;34607;48.520;-1.330;2023-10-31T09:48:11;25.23;;;8.85;;
48795;SDS011;34607;48.520;-1.330;2023-10-31T09:50:39;17.55;;;7.00;;
48795;SDS011;34607;48.520;-1.330;2023-10-31T09:53:07;22.85;;;12.48;;
48795;SDS011;34607;48.520;-1.330;2023-10-31T09:55:36;31.98;;;15.50;;
48795;SDS011;34607;48.520;-1.330;2023-10-31T09:58:03;21.85;;;12.20;;
48795;SDS011;34607;48.520;-1.330;2023-10-31T10:00:32;22.60;;;11.27;;
48795;SDS011;34607;48.520;-1.330;2023-10-31T10:03:02;27.27;;;11.20;;
48795;SDS011;34607;48.520;-1.330;2023-10-31T10:05:30;21.38;;;10.30;;
48795;SDS011;34607;48.520;-1.330;2023-10-31T10:07:58;24.30;;;10.98;;
48795;SDS011;34607;48.520;-1.330;2023-10-31T10:10:25;22.17;;;9.73;;
48795;SDS011;34607;48.520;-1.330;2023-10-31T10:12:52;21.83;;;9.10;;
48795;SDS011;34607;48.520;-1.330;2023-10-31T10:15:19;18.73;;;7.70;;
48795;SDS011;34607;48.520;-1.330;2023-10-31T10:17:51;19.10;;;6.20;;
48795;SDS011;34607;48.520;-1.330;2023-10-31T10:20:18;15.73;;;6.68;;
48795;SDS011;34607;48.520;-1.330;2023-10-31T10:22:46;15.45;;;6.10;;
48795;SDS011;34607;48.520;-1.330;2023-10-31T10:25:13;18.42;;;7.15;;
48795;SDS011;34607;48.520;-1.330;2023-10-31T10:27:42;21.63;;;5.07;;
48795;SDS011;34607;48.520;-1.330;2023-10-31T10:30:09;18.45;;;6.72;;
48795;SDS011;34607;48.520;-1.330;2023-10-31T10:32:37;16.25;;;5.18;;
48795;SDS011;34607;48.520;-1.330;2023-10-31T10:35:06;19.15;;;5.35;;
48795;SDS011;34607;48.520;-1.330;2023-10-31T10:37:35;17.73;;;6.28;;
48795;SDS011;34607;48.520;-1.330;2023-10-31T10:40:05;21.60;;;9.20;;
48795;SDS011;34607;48.520;-1.330;2023-10-31T10:42:37;16.23;;;4.80;;
48795;SDS011;34607;48.520;-1.330;2023-10-31T10:45:10;17.05;;;4.72;;
48795;SDS011;34607;48.520;-1.330;2023-10-31T10:47:39;13.00;;;6.05;;
48795;SDS011;34607;48.520;-1.330;2023-10-31T10:50:13;21.65;;;4.60;;
48795;SDS011;34607;48.520;-1.330;2023-10-31T10:52:41;16.48;;;4.30;;
48795;SDS011;34607;48.520;-1.330;2023-10-31T10:55:13;14.55;;;3.70;;
48795;SDS011;34607;48.520;-1.330;2023-10-31T10:57:48;20.73;;;3.65;;
48795;SDS011;34607;48.520;-1.330;2023-10-31T11:00:22;16.10;;;4.97;;
48795;SDS011;34607;48.520;-1.330;2023-10-31T11:02:51;17.60;;;5.57;;
48795;SDS011;34607;48.520;-1.330;2023-10-31T11:05:20;10.90;;;3.88;;
48795;SDS011;34607;48.520;-1.330;2023-10-31T11:07:47;17.65;;;4.57;;
48795;SDS011;34607;48.520;-1.330;2023-10-31T11:10:16;15.60;;;3.72;;
48795;SDS011;34607;48.520;-1.330;2023-10-31T11:12:43;13.77;;;4.18;;
48795;SDS011;34607;48.520;-1.330;2023-10-31T11:15:11;20.95;;;4.15;;
48795;SDS011;34607;48.520;-1.330;2023-10-31T11:17:41;11.30;;;3.00;;
48795;SDS011;34607;48.520;-1.330;2023-10-31T11:20:11;16.08;;;3.80;;
48795;SDS011;34607;48.520;-1.330;2023-10-31T11:22:42;10.65;;;2.67;;
48795;SDS011;34607;48.520;-1.330;2023-10-31T11:25:12;15.13;;;3.05;;
48795;SDS011;34607;48.520;-1.330;2023-10-31T11:27:41;12.23;;;3.63;;
48795;SDS011;34607;48.520;-1.330;2023-10-31T11:30:08;16.80;;;3.60;;
48795;SDS011;34607;48.520;-1.330;2023-10-31T11:32:47;12.80;;;2.75;;
48795;SDS011;34607;48.520;-1.330;2023-10-31T11:35:15;11.75;;;2.63;;
48795;SDS011;34607;48.520;-1.330;2023-10-31T11:37:44;11.93;;;2.45;;
48795;SDS011;34607;48.520;-1.330;2023-10-31T11:40:15;11.20;;;2.95;;
48795;SDS011;34607;48.520;-1.330;2023-10-31T11:42:42;12.90;;;2.42;;
48795;SDS011;34607;48.520;-1.330;2023-10-31T11:45:10;9.35;;;2.55;;
48795;SDS011;34607;48.520;-1.330;2023-10-31T11:47:47;12.90;;;3.22;;
48795;SDS011;34607;48.520;-1.330;2023-10-31T11:50:15;11.13;;;2.40;;
48795;SDS011;34607;48.520;-1.330;2023-10-31T11:52:43;9.20;;;2.45;;
48795;SDS011;34607;48.520;-1.330;2023-10-31T11:55:11;9.15;;;2.55;;
48795;SDS011;34607;48.520;-1.330;2023-10-31T11:57:39;11.77;;;3.00;;
48795;SDS011;34607;48.520;-1.330;2023-10-31T12:00:06;12.07;;;2.50;;
48795;SDS011;34607;48.520;-1.330;2023-10-31T12:02:56;10.15;;;2.72;;
48795;SDS011;34607;48.520;-1.330;2023-10-31T12:05:24;11.52;;;2.60;;
48795;SDS011;34607;48.520;-1.330;2023-10-31T12:07:53;10.48;;;2.75;;
48795;SDS011;34607;48.520;-1.330;2023-10-31T12:10:24;14.00;;;3.20;;
48795;SDS011;34607;48.520;-1.330;2023-10-31T12:12:52;13.70;;;2.95;;
48795;SDS011;34607;48.520;-1.330;2023-10-31T12:15:19;12.13;;;2.67;;
48795;SDS011;34607;48.520;-1.330;2023-10-31T12:17:46;9.32;;;2.40;;
48795;SDS011;34607;48.520;-1.330;2023-10-31T12:20:13;10.60;;;2.42;;
48795;SDS011;34607;48.520;-1.330;2023-10-31T12:22:41;10.73;;;2.70;;
48795;SDS011;34607;48.520;-1.330;2023-10-31T12:25:10;10.70;;;2.78;;
48795;SDS011;34607;48.520;-1.330;2023-10-31T12:27:45;16.33;;;2.83;;
48795;SDS011;34607;48.520;-1.330;2023-10-31T12:30:15;9.02;;;2.08;;
48795;SDS011;34607;48.520;-1.330;2023-10-31T12:32:53;11.65;;;2.90;;
48795;SDS011;34607;48.520;-1.330;2023-10-31T12:35:23;10.75;;;2.88;;
48795;SDS011;34607;48.520;-1.330;2023-10-31T12:37:52;6.78;;;2.20;;
48795;SDS011;34607;48.520;-1.330;2023-10-31T12:40:22;13.50;;;2.38;;
48795;SDS011;34607;48.520;-1.330;2023-10-31T12:42:51;7.03;;;2.30;;
48795;SDS011;34607;48.520;-1.330;2023-10-31T12:45:19;9.57;;;2.28;;
48795;SDS011;34607;48.520;-1.330;2023-10-31T12:47:59;9.05;;;2.45;;
48795;SDS011;34607;48.520;-1.330;2023-10-31T12:50:27;17.70;;;2.63;;
48795;SDS011;34607;48.520;-1.330;2023-10-31T12:52:56;7.20;;;2.20;;
48795;SDS011;34607;48.520;-1.330;2023-10-31T12:55:27;10.88;;;2.78;;
48795;SDS011;34607;48.520;-1.330;2023-10-31T12:57:55;10.02;;;2.67;;
48795;SDS011;34607;48.520;-1.330;2023-10-31T13:00:29;12.15;;;2.50;;
48795;SDS011;34607;48.520;-1.330;2023-10-31T13:05:25;15.25;;;2.60;;
48795;SDS011;34607;48.520;-1.330;2023-10-31T13:07:54;13.80;;;3.45;;
48795;SDS011;34607;48.520;-1.330;2023-10-31T13:10:22;13.57;;;2.53;;
48795;SDS011;34607;48.520;-1.330;2023-10-31T13:12:52;11.27;;;2.80;;
48795;SDS011;34607;48.520;-1.330;2023-10-31T13:15:21;11.82;;;3.58;;
48795;SDS011;34607;48.520;-1.330;2023-10-31T13:17:49;14.10;;;2.78;;
48795;SDS011;34607;48.520;-1.330;2023-10-31T13:20:17;9.55;;;2.78;;
48795;SDS011;34607;48.520;-1.330;2023-10-31T13:22:45;11.60;;;2.53;;
48795;SDS011;34607;48.520;-1.330;2023-10-31T13:25:16;14.57;;;2.80;;
48795;SDS011;34607;48.520;-1.330;2023-10-31T13:27:43;9.93;;;2.13;;
48795;SDS011;34607;48.520;-1.330;2023-10-31T13:30:17;13.13;;;2.70;;
48795;SDS011;34607;48.520;-1.330;2023-10-31T13:32:46;12.73;;;2.78;;
48795;SDS011;34607;48.520;-1.330;2023-10-31T13:35:13;16.52;;;2.85;;
48795;SDS011;34607;48.520;-1.330;2023-10-31T13:37:40;12.05;;;2.67;;
48795;SDS011;34607;48.520;-1.330;2023-10-31T13:40:08;13.63;;;2.67;;
48795;SDS011;34607;48.520;-1.330;2023-10-31T13:42:35;11.93;;;2.35;;
48795;SDS011;34607;48.520;-1.330;2023-10-31T13:45:03;10.48;;;2.95;;
48795;SDS011;34607;48.520;-1.330;2023-10-31T13:47:31;14.40;;;2.38;;
48795;SDS011;34607;48.520;-1.330;2023-10-31T13:49:59;18.23;;;3.40;;
48795;SDS011;34607;48.520;-1.330;2023-10-31T13:52:26;10.50;;;2.75;;
48795;SDS011;34607;48.520;-1.330;2023-10-31T13:54:53;14.95;;;3.42;;
48795;SDS011;34607;48.520;-1.330;2023-10-31T13:57:20;20.95;;;3.88;;
48795;SDS011;34607;48.520;-1.330;2023-10-31T13:59:47;17.58;;;3.20;;
48795;SDS011;34607;48.520;-1.330;2023-10-31T14:02:14;17.92;;;4.32;;
48795;SDS011;34607;48.520;-1.330;2023-10-31T14:04:43;11.23;;;2.70;;
48795;SDS011;34607;48.520;-1.330;2023-10-31T14:07:10;8.68;;;2.17;;
48795;SDS011;34607;48.520;-1.330;2023-10-31T14:09:44;16.23;;;3.13;;
48795;SDS011;34607;48.520;-1.330;2023-10-31T14:12:13;11.43;;;2.72;;
48795;SDS011;34607;48.520;-1.330;2023-10-31T14:14:40;12.65;;;3.50;;
48795;SDS011;34607;48.520;-1.330;2023-10-31T14:17:08;13.35;;;2.80;;
48795;SDS011;34607;48.520;-1.330;2023-10-31T14:19:35;14.90;;;3.42;;
48795;SDS011;34607;48.520;-1.330;2023-10-31T14:22:03;16.90;;;3.75;;
48795;SDS011;34607;48.520;-1.330;2023-10-31T14:24:32;13.27;;;3.85;;
48795;SDS011;34607;48.520;-1.330;2023-10-31T14:27:01;14.70;;;3.28;;
48795;SDS011;34607;48.520;-1.330;2023-10-31T14:29:28;12.30;;;3.63;;
48795;SDS011;34607;48.520;-1.330;2023-10-31T14:31:55;13.05;;;2.72;;
48795;SDS011;34607;48.520;-1.330;2023-10-31T14:34:22;14.48;;;3.08;;
48795;SDS011;34607;48.520;-1.330;2023-10-31T14:36:50;16.83;;;3.30;;
48795;SDS011;34607;48.520;-1.330;2023-10-31T14:39:19;14.77;;;3.10;;
48795;SDS011;34607;48.520;-1.330;2023-10-31T14:41:46;12.45;;;2.53;;
48795;SDS011;34607;48.520;-1.330;2023-10-31T14:44:13;10.20;;;3.00;;
48795;SDS011;34607;48.520;-1.330;2023-10-31T14:46:41;14.93;;;3.67;;
48795;SDS011;34607;48.520;-1.330;2023-10-31T14:49:08;19.15;;;6.78;;
48795;SDS011;34607;48.520;-1.330;2023-10-31T14:51:36;11.43;;;3.72;;
48795;SDS011;34607;48.520;-1.330;2023-10-31T14:54:03;16.00;;;4.95;;
48795;SDS011;34607;48.520;-1.330;2023-10-31T14:56:33;15.80;;;3.97;;
48795;SDS011;34607;48.520;-1.330;2023-10-31T14:59:02;13.52;;;4.93;;
48795;SDS011;34607;48.520;-1.330;2023-10-31T15:01:29;18.35;;;7.20;;
48795;SDS011;34607;48.520;-1.330;2023-10-31T15:03:56;22.85;;;3.70;;
48795;SDS011;34607;48.520;-1.330;2023-10-31T15:06:23;16.77;;;5.07;;
48795;SDS011;34607;48.520;-1.330;2023-10-31T15:08:51;13.18;;;3.70;;
48795;SDS011;34607;48.520;-1.330;2023-10-31T15:11:18;11.40;;;3.53;;
48795;SDS011;34607;48.520;-1.330;2023-10-31T15:13:46;14.88;;;3.30;;
48795;SDS011;34607;48.520;-1.330;2023-10-31T15:16:13;14.05;;;3.38;;
48795;SDS011;34607;48.520;-1.330;2023-10-31T15:18:41;15.63;;;4.07;;
48795;SDS011;34607;48.520;-1.330;2023-10-31T15:21:08;14.75;;;5.35;;
48795;SDS011;34607;48.520;-1.330;2023-10-31T15:23:35;17.25;;;6.60;;
48795;SDS011;34607;48.520;-1.330;2023-10-31T15:26:02;18.50;;;4.70;;
48795;SDS011;34607;48.520;-1.330;2023-10-31T15:28:30;21.40;;;5.03;;
48795;SDS011;34607;48.520;-1.330;2023-10-31T15:30:58;11.82;;;3.08;;
48795;SDS011;34607;48.520;-1.330;2023-10-31T15:33:26;12.57;;;3.10;;
48795;SDS011;34607;48.520;-1.330;2023-10-31T15:35:53;14.00;;;3.30;;
48795;SDS011;34607;48.520;-1.330;2023-10-31T15:38:20;11.20;;;3.25;;
48795;SDS011;34607;48.520;-1.330;2023-10-31T15:40:47;16.08;;;3.45;;
48795;SDS011;34607;48.520;-1.330;2023-10-31T15:43:14;15.32;;;3.17;;
48795;SDS011;34607;48.520;-1.330;2023-10-31T15:45:41;12.48;;;3.58;;
48795;SDS011;34607;48.520;-1.330;2023-10-31T15:48:10;14.30;;;3.50;;
48795;SDS011;34607;48.520;-1.330;2023-10-31T15:50:38;12.68;;;3.67;;
48795;SDS011;34607;48.520;-1.330;2023-10-31T15:53:06;16.80;;;3.13;;
48795;SDS011;34607;48.520;-1.330;2023-10-31T15:55:33;9.75;;;2.80;;
48795;SDS011;34607;48.520;-1.330;2023-10-31T15:58:01;15.07;;;2.75;;
48795;SDS011;34607;48.520;-1.330;2023-10-31T16:00:28;15.55;;;3.17;;
48795;SDS011;34607;48.520;-1.330;2023-10-31T16:02:55;9.82;;;2.55;;
48795;SDS011;34607;48.520;-1.330;2023-10-31T16:05:24;17.08;;;3.47;;
48795;SDS011;34607;48.520;-1.330;2023-10-31T16:07:51;14.50;;;2.95;;
48795;SDS011;34607;48.520;-1.330;2023-10-31T16:10:18;11.35;;;2.85;;
48795;SDS011;34607;48.520;-1.330;2023-10-31T16:12:45;17.17;;;3.47;;
48795;SDS011;34607;48.520;-1.330;2023-10-31T16:15:12;16.10;;;3.00;;
48795;SDS011;34607;48.520;-1.330;2023-10-31T16:17:39;18.23;;;4.28;;
48795;SDS011;34607;48.520;-1.330;2023-10-31T16:20:07;14.70;;;5.18;;
48795;SDS011;34607;48.520;-1.330;2023-10-31T16:22:36;15.27;;;5.35;;
48795;SDS011;34607;48.520;-1.330;2023-10-31T16:25:03;22.50;;;4.25;;
48795;SDS011;34607;48.520;-1.330;2023-10-31T16:27:32;16.58;;;3.15;;
48795;SDS011;34607;48.520;-1.330;2023-10-31T16:29:59;16.30;;;4.03;;
48795;SDS011;34607;48.520;-1.330;2023-10-31T16:32:26;11.05;;;3.38;;
48795;SDS011;34607;48.520;-1.330;2023-10-31T16:34:53;11.85;;;3.45;;
48795;SDS011;34607;48.520;-1.330;2023-10-31T16:37:20;9.80;;;2.53;;
48795;SDS011;34607;48.520;-1.330;2023-10-31T16:39:49;12.23;;;2.75;;
48795;SDS011;34607;48.520;-1.330;2023-10-31T16:42:16;15.57;;;3.50;;
48795;SDS011;34607;48.520;-1.330;2023-10-31T16:44:43;13.38;;;4.90;;
48795;SDS011;34607;48.520;-1.330;2023-10-31T16:47:11;15.40;;;3.38;;
48795;SDS011;34607;48.520;-1.330;2023-10-31T16:49:38;7.60;;;2.08;;
48795;SDS011;34607;48.520;-1.330;2023-10-31T16:52:05;11.88;;;3.00;;
48795;SDS011;34607;48.520;-1.330;2023-10-31T16:54:32;9.95;;;2.50;;
48795;SDS011;34607;48.520;-1.330;2023-10-31T16:57:01;7.15;;;2.30;;
48795;SDS011;34607;48.520;-1.330;2023-10-31T16:59:28;15.68;;;3.42;;
48795;SDS011;34607;48.520;-1.330;2023-10-31T17:01:55;10.55;;;3.42;;
48795;SDS011;34607;48.520;-1.330;2023-10-31T17:04:22;10.80;;;5.38;;
48795;SDS011;34607;48.520;-1.330;2023-10-31T17:06:49;9.43;;;2.92;;
48795;SDS011;34607;48.520;-1.330;2023-10-31T17:09:16;12.68;;;4.72;;
48795;SDS011;34607;48.520;-1.330;2023-10-31T17:11:44;13.90;;;5.30;;
48795;SDS011;34607;48.520;-1.330;2023-10-31T17:14:12;14.82;;;5.30;;
48795;SDS011;34607;48.520;-1.330;2023-10-31T17:16:40;16.00;;;6.57;;
48795;SDS011;34607;48.520;-1.330;2023-10-31T17:19:09;12.45;;;4.30;;
48795;SDS011;34607;48.520;-1.330;2023-10-31T17:21:38;12.10;;;4.30;;
48795;SDS011;34607;48.520;-1.330;2023-10-31T17:24:05;16.40;;;6.15;;
48795;SDS011;34607;48.520;-1.330;2023-10-31T17:26:33;20.38;;;8.98;;
48795;SDS011;34607;48.520;-1.330;2023-10-31T17:29:01;22.58;;;8.90;;
48795;SDS011;34607;48.520;-1.330;2023-10-31T17:31:30;11.93;;;4.93;;
48795;SDS011;34607;48.520;-1.330;2023-10-31T17:33:59;14.07;;;6.53;;
48795;SDS011;34607;48.520;-1.330;2023-10-31T17:36:28;15.85;;;5.20;;
48795;SDS011;34607;48.520;-1.330;2023-10-31T17:38:55;19.80;;;4.07;;
48795;SDS011;34607;48.520;-1.330;2023-10-31T17:41:23;11.45;;;3.22;;
48795;SDS011;34607;48.520;-1.330;2023-10-31T17:43:50;15.68;;;4.40;;
48795;SDS011;34607;48.520;-1.330;2023-10-31T17:46:17;15.98;;;6.00;;
48795;SDS011;34607;48.520;-1.330;2023-10-31T17:48:46;17.75;;;6.97;;
48795;SDS011;34607;48.520;-1.330;2023-10-31T17:51:13;19.92;;;4.47;;
48795;SDS011;34607;48.520;-1.330;2023-10-31T17:53:40;18.73;;;4.68;;
48795;SDS011;34607;48.520;-1.330;2023-10-31T17:56:08;13.30;;;4.05;;
48795;SDS011;34607;48.520;-1.330;2023-10-31T17:58:35;17.13;;;5.05;;
48795;SDS011;34607;48.520;-1.330;2023-10-31T18:01:03;25.20;;;9.48;;
48795;SDS011;34607;48.520;-1.330;2023-10-31T18:03:30;19.02;;;4.63;;
48795;SDS011;34607;48.520;-1.330;2023-10-31T18:05:59;22.25;;;6.22;;
48795;SDS011;34607;48.520;-1.330;2023-10-31T18:08:26;18.75;;;5.07;;
48795;SDS011;34607;48.520;-1.330;2023-10-31T18:10:54;32.53;;;13.50;;
48795;SDS011;34607;48.520;-1.330;2023-10-31T18:13:21;19.70;;;6.30;;
48795;SDS011;34607;48.520;-1.330;2023-10-31T18:15:48;25.52;;;9.65;;
48795;SDS011;34607;48.520;-1.330;2023-10-31T18:18:15;16.98;;;3.88;;
48795;SDS011;34607;48.520;-1.330;2023-10-31T18:20:43;17.58;;;5.07;;
48795;SDS011;34607;48.520;-1.330;2023-10-31T18:23:12;19.42;;;3.78;;
48795;SDS011;34607;48.520;-1.330;2023-10-31T18:25:39;19.83;;;5.00;;
48795;SDS011;34607;48.520;-1.330;2023-10-31T18:28:06;18.38;;;3.42;;
48795;SDS011;34607;48.520;-1.330;2023-10-31T18:30:33;23.35;;;4.25;;
48795;SDS011;34607;48.520;-1.330;2023-10-31T18:33:00;16.30;;;4.80;;
48795;SDS011;34607;48.520;-1.330;2023-10-31T18:35:28;21.70;;;5.55;;
48795;SDS011;34607;48.520;-1.330;2023-10-31T18:37:56;21.17;;;4.72;;
48795;SDS011;34607;48.520;-1.330;2023-10-31T18:40:25;22.73;;;4.95;;
48795;SDS011;34607;48.520;-1.330;2023-10-31T18:42:52;16.90;;;3.95;;
48795;SDS011;34607;48.520;-1.330;2023-10-31T18:45:20;22.30;;;6.03;;
48795;SDS011;34607;48.520;-1.330;2023-10-31T18:47:48;31.85;;;11.07;;
48795;SDS011;34607;48.520;-1.330;2023-10-31T18:50:15;19.92;;;6.78;;
48795;SDS011;34607;48.520;-1.330;2023-10-31T18:52:42;18.90;;;4.15;;
48795;SDS011;34607;48.520;-1.330;2023-10-31T18:55:10;20.55;;;5.38;;
48795;SDS011;34607;48.520;-1.330;2023-10-31T18:57:38;20.30;;;6.38;;
48795;SDS011;34607;48.520;-1.330;2023-10-31T19:00:06;20.92;;;5.97;;
48795;SDS011;34607;48.520;-1.330;2023-10-31T19:02:34;20.77;;;5.60;;
48795;SDS011;34607;48.520;-1.330;2023-10-31T19:05:01;20.45;;;5.15;;
48795;SDS011;34607;48.520;-1.330;2023-10-31T19:07:29;25.45;;;4.20;;
48795;SDS011;34607;48.520;-1.330;2023-10-31T19:09:56;17.88;;;5.25;;
48795;SDS011;34607;48.520;-1.330;2023-10-31T19:12:23;16.77;;;5.15;;
48795;SDS011;34607;48.520;-1.330;2023-10-31T19:14:52;14.75;;;3.70;;
48795;SDS011;34607;48.520;-1.330;2023-10-31T19:17:19;23.33;;;4.22;;
48795;SDS011;34607;48.520;-1.330;2023-10-31T19:19:46;24.08;;;4.40;;
48795;SDS011;34607;48.520;-1.330;2023-10-31T19:22:13;19.70;;;4.13;;
48795;SDS011;34607;48.520;-1.330;2023-10-31T19:24:40;19.77;;;4.75;;
48795;SDS011;34607;48.520;-1.330;2023-10-31T19:27:10;19.75;;;4.93;;
48795;SDS011;34607;48.520;-1.330;2023-10-31T19:29:37;23.33;;;5.05;;
48795;SDS011;34607;48.520;-1.330;2023-10-31T19:32:06;14.55;;;4.78;;
48795;SDS011;34607;48.520;-1.330;2023-10-31T19:34:33;25.02;;;5.10;;
48795;SDS011;34607;48.520;-1.330;2023-10-31T19:37:00;20.30;;;7.60;;
48795;SDS011;34607;48.520;-1.330;2023-10-31T19:39:28;15.45;;;5.00;;
48795;SDS011;34607;48.520;-1.330;2023-10-31T19:41:55;24.33;;;5.60;;
48795;SDS011;34607;48.520;-1.330;2023-10-31T19:44:22;27.83;;;5.75;;
48795;SDS011;34607;48.520;-1.330;2023-10-31T19:46:49;20.63;;;7.28;;
48795;SDS011;34607;48.520;-1.330;2023-10-31T19:49:18;19.40;;;6.38;;
48795;SDS011;34607;48.520;-1.330;2023-10-31T19:51:45;18.48;;;6.05;;
48795;SDS011;34607;48.520;-1.330;2023-10-31T19:54:12;22.08;;;5.25;;
48795;SDS011;34607;48.520;-1.330;2023-10-31T19:56:39;29.27;;;8.65;;
48795;SDS011;34607;48.520;-1.330;2023-10-31T19:59:07;20.23;;;5.60;;
48795;SDS011;34607;48.520;-1.330;2023-10-31T20:01:34;26.42;;;6.45;;
48795;SDS011;34607;48.520;-1.330;2023-10-31T20:04:01;15.32;;;4.78;;
48795;SDS011;34607;48.520;-1.330;2023-10-31T20:06:30;23.38;;;7.30;;
48795;SDS011;34607;48.520;-1.330;2023-10-31T20:08:58;26.67;;;6.00;;
48795;SDS011;34607;48.520;-1.330;2023-10-31T20:11:25;18.77;;;5.32;;
48795;SDS011;34607;48.520;-1.330;2023-10-31T20:13:52;23.35;;;8.68;;
48795;SDS011;34607;48.520;-1.330;2023-10-31T20:16:19;16.75;;;5.18;;
48795;SDS011;34607;48.520;-1.330;2023-10-31T20:18:46;15.93;;;5.03;;
48795;SDS011;34607;48.520;-1.330;2023-10-31T20:21:14;22.63;;;5.00;;
48795;SDS011;34607;48.520;-1.330;2023-10-31T20:23:42;21.80;;;5.38;;
48795;SDS011;34607;48.520;-1.330;2023-10-31T20:26:09;26.02;;;7.30;;
48795;SDS011;34607;48.520;-1.330;2023-10-31T20:28:36;21.45;;;5.00;;
48795;SDS011;34607;48.520;-1.330;2023-10-31T20:31:05;20.77;;;6.65;;
48795;SDS011;34607;48.520;-1.330;2023-10-31T20:33:32;22.25;;;4.40;;
48795;SDS011;34607;48.520;-1.330;2023-10-31T20:35:59;18.45;;;4.85;;
48795;SDS011;34607;48.520;-1.330;2023-10-31T20:38:27;17.58;;;3.95;;
48795;SDS011;34607;48.520;-1.330;2023-10-31T20:40:55;19.10;;;4.55;;
48795;SDS011;34607;48.520;-1.330;2023-10-31T20:43:23;22.83;;;4.72;;
48795;SDS011;34607;48.520;-1.330;2023-10-31T20:45:50;19.60;;;4.22;;
48795;SDS011;34607;48.520;-1.330;2023-10-31T20:48:17;15.25;;;3.50;;
48795;SDS011;34607;48.520;-1.330;2023-10-31T20:50:44;21.67;;;4.75;;
48795;SDS011;34607;48.520;-1.330;2023-10-31T20:53:11;22.52;;;4.82;;
48795;SDS011;34607;48.520;-1.330;2023-10-31T20:55:38;24.55;;;5.15;;
48795;SDS011;34607;48.520;-1.330;2023-10-31T20:58:08;25.35;;;4.53;;
48795;SDS011;34607;48.520;-1.330;2023-10-31T21:00:35;21.58;;;5.95;;
48795;SDS011;34607;48.520;-1.330;2023-10-31T21:03:03;25.05;;;4.60;;
48795;SDS011;34607;48.520;-1.330;2023-10-31T21:05:31;18.20;;;4.28;;
48795;SDS011;34607;48.520;-1.330;2023-10-31T21:07:59;20.70;;;4.57;;
48795;SDS011;34607;48.520;-1.330;2023-10-31T21:10:26;20.05;;;4.97;;
48795;SDS011;34607;48.520;-1.330;2023-10-31T21:12:53;19.27;;;4.85;;
48795;SDS011;34607;48.520;-1.330;2023-10-31T21:15:22;25.23;;;5.00;;
48795;SDS011;34607;48.520;-1.330;2023-10-31T21:17:50;34.28;;;10.98;;
48795;SDS011;34607;48.520;-1.330;2023-10-31T21:20:17;21.17;;;8.63;;
48795;SDS011;34607;48.520;-1.330;2023-10-31T21:22:44;28.15;;;6.13;;
48795;SDS011;34607;48.520;-1.330;2023-10-31T21:25:11;32.63;;;6.05;;
48795;SDS011;34607;48.520;-1.330;2023-10-31T21:27:39;26.23;;;5.28;;
48795;SDS011;34607;48.520;-1.330;2023-10-31T21:30:08;20.50;;;4.88;;
48795;SDS011;34607;48.520;-1.330;2023-10-31T21:32:37;23.40;;;5.03;;
48795;SDS011;34607;48.520;-1.330;2023-10-31T21:35:06;23.77;;;5.10;;
48795;SDS011;34607;48.520;-1.330;2023-10-31T21:37:36;18.33;;;4.68;;
48795;SDS011;34607;48.520;-1.330;2023-10-31T21:40:03;20.55;;;5.10;;
48795;SDS011;34607;48.520;-1.330;2023-10-31T21:42:31;20.50;;;5.28;;
48795;SDS011;34607;48.520;-1.330;2023-10-31T21:44:58;29.48;;;4.32;;
48795;SDS011;34607;48.520;-1.330;2023-10-31T21:47:26;26.38;;;5.00;;
48795;SDS011;34607;48.520;-1.330;2023-10-31T21:49:54;31.38;;;13.15;;
48795;SDS011;34607;48.520;-1.330;2023-10-31T21:52:22;26.67;;;6.40;;
48795;SDS011;34607;48.520;-1.330;2023-10-31T21:54:49;22.65;;;5.55;;
48795;SDS011;34607;48.520;-1.330;2023-10-31T21:57:16;24.63;;;9.95;;
48795;SDS011;34607;48.520;-1.330;2023-10-31T21:59:43;22.35;;;5.82;;
48795;SDS011;34607;48.520;-1.330;2023-10-31T22:02:10;21.60;;;5.20;;
48795;SDS011;34607;48.520;-1.330;2023-10-31T22:04:37;23.48;;;5.20;;
48795;SDS011;34607;48.520;-1.330;2023-10-31T22:07:05;24.63;;;5.22;;
48795;SDS011;34607;48.520;-1.330;2023-10-31T22:09:33;18.92;;;4.88;;